createdAt,value
2018-05-02T00:07:01.383Z,5.2
2018-05-02T00:22:01.460Z,5.3
2018-05-02T00:27:01.278Z,5.2
2018-05-02T00:32:03.339Z,5.1
2018-05-02T00:37:01.285Z,5.0
2018-05-02T00:47:01.361Z,4.8
2018-05-02T00:52:01.351Z,4.7
2018-05-02T01:07:02.324Z,4.7
2018-05-02T01:22:03.340Z,4.7
2018-05-02T01:27:01.283Z,4.8
2018-05-02T01:42:02.330Z,4.8
2018-05-02T01:52:01.381Z,4.7
2018-05-02T01:57:01.293Z,4.5
2018-05-02T02:02:01.352Z,4.4
2018-05-02T02:07:01.478Z,4.2
2018-05-02T02:12:01.383Z,4.1
2018-05-02T02:17:01.318Z,3.9
2018-05-02T02:28:01.115Z,3.8
2018-05-02T02:33:01.123Z,3.7
2018-05-02T02:43:01.268Z,3.6
2018-05-02T02:48:01.259Z,3.5
2018-05-02T03:03:01.279Z,3.5
2018-05-02T03:08:01.239Z,3.4
2018-05-02T03:18:01.218Z,3.3
2018-05-02T03:23:01.265Z,3.2
2018-05-02T03:38:01.234Z,3.2
2018-05-02T03:43:01.267Z,3.3
2018-05-02T03:58:01.305Z,3.3
2018-05-02T04:03:01.291Z,3.2
2018-05-02T04:18:01.338Z,3.4
2018-05-02T04:23:01.090Z,3.6
2018-05-02T04:28:01.383Z,3.8
2018-05-02T04:33:01.399Z,4.0
2018-05-02T04:38:01.402Z,4.3
2018-05-02T04:43:01.386Z,4.5
2018-05-02T04:48:01.408Z,4.6
2018-05-02T04:53:01.397Z,4.7
2018-05-02T04:58:01.397Z,4.8
2018-05-02T05:13:01.432Z,4.8
2018-05-02T05:18:01.410Z,5.0
2018-05-02T05:23:01.382Z,5.1
2018-05-02T05:28:01.431Z,5.4
2018-05-02T05:33:01.475Z,5.6
2018-05-02T05:38:01.472Z,5.9
2018-05-02T05:43:01.399Z,6.2
2018-05-02T05:48:01.271Z,6.4
2018-05-02T05:53:01.444Z,6.6
2018-05-02T05:58:01.294Z,6.9
2018-05-02T06:03:01.277Z,7.1
2018-05-02T06:08:01.324Z,7.3
2018-05-02T06:13:01.306Z,7.4
2018-05-02T06:18:01.290Z,7.7
2018-05-02T06:23:01.318Z,7.8
2018-05-02T06:29:01.384Z,7.9
2018-05-02T06:34:01.300Z,8.2
2018-05-02T06:39:03.367Z,8.5
2018-05-02T06:44:01.303Z,8.7
2018-05-02T06:49:01.383Z,8.9
2018-05-02T06:54:01.339Z,9.2
2018-05-02T06:59:03.356Z,9.3
2018-05-02T07:04:01.276Z,9.5
2018-05-02T07:09:01.404Z,9.7
2018-05-02T07:14:01.333Z,9.9
2018-05-02T07:24:01.502Z,10.1
2018-05-02T07:29:01.428Z,10.3
2018-05-02T07:34:01.306Z,10.5
2018-05-02T07:39:04.501Z,10.6
2018-05-02T07:44:01.307Z,10.8
2018-05-02T07:49:01.311Z,10.9
2018-05-02T07:54:01.304Z,11.1
2018-05-02T07:59:01.365Z,11.2
2018-05-02T08:04:01.274Z,11.4
2018-05-02T08:09:01.347Z,11.5
2018-05-02T08:14:01.363Z,11.6
2018-05-02T08:19:01.382Z,11.7
2018-05-02T08:24:01.306Z,11.9
2018-05-02T08:29:01.425Z,12.0
2018-05-02T08:34:01.318Z,12.2
2018-05-02T08:39:03.367Z,12.3
2018-05-02T08:44:01.309Z,12.4
2018-05-02T08:49:02.353Z,12.5
2018-05-02T08:54:01.300Z,12.6
2018-05-02T09:09:05.496Z,12.6
2018-05-02T09:19:01.156Z,12.7
2018-05-02T09:24:01.318Z,12.9
2018-05-02T09:29:01.381Z,13.1
2018-05-02T09:34:01.314Z,13.3
2018-05-02T09:39:05.478Z,13.4
2018-05-02T09:54:01.322Z,13.4
2018-05-02T10:04:01.160Z,13.6
2018-05-02T10:09:01.409Z,13.8
2018-05-02T10:14:01.340Z,14.0
2018-05-02T10:19:05.456Z,14.1
2018-05-02T10:24:01.307Z,14.4
2018-05-02T10:29:05.478Z,14.5
2018-05-02T10:34:01.316Z,14.6
2018-05-02T10:39:01.382Z,14.7
2018-05-02T10:44:01.311Z,14.9
2018-05-02T10:49:01.325Z,15.1
2018-05-02T10:54:01.409Z,15.3
2018-05-02T10:59:01.372Z,15.4
2018-05-02T11:04:01.290Z,15.5
2018-05-02T11:19:01.163Z,15.6
2018-05-02T11:29:01.452Z,15.8
2018-05-02T11:34:01.295Z,15.9
2018-05-02T11:39:03.366Z,16.0
2018-05-02T11:44:01.303Z,16.1
2018-05-02T11:49:01.380Z,16.0
2018-05-02T11:54:01.320Z,16.1
2018-05-02T12:04:01.164Z,16.4
2018-05-02T12:09:01.359Z,16.7
2018-05-02T12:14:01.315Z,17.0
2018-05-02T12:19:01.317Z,17.2
2018-05-02T12:24:01.252Z,17.5
2018-05-02T12:29:01.303Z,17.6
2018-05-02T12:44:01.383Z,17.5
2018-05-02T12:49:01.366Z,17.2
2018-05-02T12:54:01.303Z,17.3
2018-05-02T12:59:01.367Z,17.4
2018-05-02T13:04:01.304Z,17.6
2018-05-02T13:09:01.384Z,17.9
2018-05-02T13:14:01.316Z,18.0
2018-05-02T13:19:02.343Z,17.7
2018-05-02T13:24:01.309Z,17.5
2018-05-02T13:29:02.313Z,17.2
2018-05-02T13:34:01.279Z,17.0
2018-05-02T13:44:02.320Z,17.4
2018-05-02T13:49:01.388Z,17.6
2018-05-02T13:54:01.299Z,18.0
2018-05-02T13:59:01.353Z,18.3
2018-05-02T14:04:01.303Z,18.5
2018-05-02T14:14:01.400Z,18.3
2018-05-02T14:19:02.329Z,18.1
2018-05-02T14:24:01.300Z,17.6
2018-05-02T14:29:01.439Z,17.3
2018-05-02T14:34:01.298Z,17.1
2018-05-02T14:39:01.303Z,16.9
2018-05-02T14:44:01.301Z,17.0
2018-05-02T14:49:02.320Z,17.3
2018-05-02T14:54:01.300Z,17.7
2018-05-02T14:59:01.359Z,18.1
2018-05-02T15:04:01.267Z,18.4
2018-05-02T15:14:02.412Z,18.5
2018-05-02T15:19:01.372Z,18.4
2018-05-02T15:24:01.386Z,18.3
2018-05-02T15:29:01.379Z,18.4
2018-05-02T15:34:01.296Z,18.3
2018-05-02T15:39:03.433Z,18.2
2018-05-02T15:44:01.389Z,18.3
2018-05-02T15:55:01.441Z,18.2
2018-05-02T16:00:06.003Z,18.3
2018-05-02T16:05:01.264Z,18.2
2018-05-02T16:10:01.389Z,17.9
2018-05-02T16:15:01.515Z,17.6
2018-05-02T16:20:01.403Z,17.3
2018-05-02T16:25:01.317Z,17.0
2018-05-02T16:30:01.396Z,16.9
2018-05-02T16:35:01.300Z,16.8
2018-05-02T16:45:01.383Z,16.7
2018-05-02T16:50:01.257Z,16.6
2018-05-02T16:55:01.271Z,16.3
2018-05-02T17:00:01.290Z,15.9
2018-05-02T17:05:01.101Z,15.3
2018-05-02T17:10:01.272Z,14.9
2018-05-02T17:15:01.285Z,14.4
2018-05-02T17:20:01.353Z,14.3
2018-05-02T17:25:01.278Z,14.4
2018-05-02T17:30:01.500Z,14.6
2018-05-02T17:35:01.250Z,14.5
2018-05-02T17:45:01.261Z,14.2
2018-05-02T17:50:01.273Z,13.8
2018-05-02T17:55:01.341Z,13.3
2018-05-02T18:00:01.285Z,13.0
2018-05-02T18:05:01.269Z,12.6
2018-05-02T18:10:01.298Z,12.4
2018-05-02T18:15:01.265Z,12.2
2018-05-02T18:20:01.334Z,12.0
2018-05-02T18:25:01.212Z,11.8
2018-05-02T18:30:01.270Z,11.7
2018-05-02T18:35:01.251Z,11.5
2018-05-02T18:40:01.285Z,11.4
2018-05-02T18:45:01.292Z,11.3
2018-05-02T18:50:01.294Z,11.2
2018-05-02T18:55:01.257Z,11.1
2018-05-02T19:00:01.294Z,11.0
2018-05-02T19:15:01.315Z,10.9
2018-05-02T19:25:01.258Z,10.8
2018-05-02T19:30:01.298Z,10.7
2018-05-02T19:35:01.268Z,10.6
2018-05-02T19:40:01.275Z,10.5
2018-05-02T19:45:01.278Z,10.3
2018-05-02T19:50:01.273Z,10.2
2018-05-02T19:55:01.275Z,10.1
2018-05-02T20:00:01.290Z,10.1
2018-05-02T20:16:01.324Z,10.2
2018-05-02T20:26:01.286Z,10.3
2018-05-02T20:31:01.310Z,10.4
2018-05-02T20:36:01.349Z,10.5
2018-05-02T20:41:01.367Z,10.6
2018-05-02T20:46:01.502Z,10.7
2018-05-02T20:56:02.346Z,10.8
2018-05-02T21:11:01.378Z,10.8
2018-05-02T21:16:01.346Z,10.9
2018-05-02T21:31:01.398Z,10.9
2018-05-02T21:46:01.381Z,10.8
2018-05-02T22:01:02.336Z,10.8
2018-05-02T22:16:04.461Z,10.8
2018-05-02T22:31:02.350Z,10.7
2018-05-02T22:46:01.378Z,10.6
2018-05-02T23:01:01.368Z,10.5
2018-05-02T23:11:03.374Z,10.4
2018-05-02T23:21:04.509Z,10.3
2018-05-02T23:31:02.334Z,10.2
2018-05-02T23:36:01.246Z,10.1
2018-05-02T23:46:02.433Z,10.0
2018-05-02T23:56:01.301Z,9.9
